Airfield :
LOGIN :

Register | Disclaimer

   EN    FR    IT 

 










Legend :    VFR   Marginal VFR   IFR   Intensive IFR   Very Intensive IFR
Visi :
Ceiling :
>= 8 km
>= 3000ft
5 to 8 km
1000 to 3000 ft
1500m to 5 km
500 to 1000 ft
800 to 1500m
200 to 500 ft
< 800m
< 200 ft
Symbols :   Thunderstorms  Fog  Heavy snow  Heavy precipitations  Wind > 20 kt
SIGMETs :     Misc.  Thunderstorms  Icing  Turbulence  Mountain Waves  Volcanic Ashes







- Airport Elevation : 93 ft
- IATA code : XRY


LEJR - Jerez

CURRENT METAR :
  • 260930Z 20004KT 140V300 9999 SCT018 25/17 Q1018

EXPIRED METARs :
  • 260900Z 19004KT 080V240 9999 SCT014 24/17 Q1018
  • 260830Z VRB03KT 9999 SCT014 23/17 Q1018
  • 260800Z VRB03KT 9999 SCT014 23/18 Q1018
  • 260730Z VRB03KT 9999 SCT012 22/18 Q1017
  • 260700Z VRB01KT 9999 BKN012 21/18 Q1017

TAF TAF LEJR
Valid from the 26 at 06:00 until the 27 at 06:00 UTC


260500Z 2606/2706 VRB02KT CAVOK TX29/2614Z TN17/2606Z
PROB30
TEMPO 2606/2609 3000 BR BKN008
BECMG 2610/2612 28010KT
BECMG 2620/2622 VRB03KT
No reported NOTAMs for that airfield.
1 SIGMET reported for the Madrid FIR (LECM) :
 
Embedded thunderstorms
LECM SIGMET 3 VALID 260924/261200 LEVA
LECM MADRID FIR/UIR EMBD TS OBS AT 0924Z N OF LINE N4250 W01250 - N4440 W00730 TOP FL360 MOV N 20KT NC=



MET'MAP, your aeronautical weather chart ! - Copyright ORBIFLY December 2007 - Disclaimer

ORBIFLY MET'MAP TEAM :

Programming & Development : Alexandra Zaïnal
Concept & Development : Baudouin d'Aumeries
Co-Development & Prog : Marc-Olivier Méhu
Technical & hardware support : Manuel Goepfert

Contact : metmap@orbifly.com




SOURCES & CREDITS :

   NOAA